Carlsbad Station Data

Red Flag Warning: No
Fire Weather Zone: 243
SDGE Region: North Coast
Lat/Lon: 33.137/-117.327

Observations

Time Wind Speed/Gust Temp(F) RH Fuel Moist Fuel Temp(F) Dewpt(F) Tmax(F) Tmin(F) Accum Precip 10-min Precip SL Press(mb)
4/26 2:40am 57 6 G 7 54° 82% - - 49° 58.6° 53.4° - - 1009.0
4/26 2:30am 67 5 G 6 56° 80% - - 50° 58.6° 54° - - 1009.0
4/26 2:20am 72 6 G 7 55° 82% - - 49° 58.6° 54° - - 1009.0
4/26 2:10am 73 7 G 7 54° 82% - - 49° 58.6° 54.1° - - 1009.0
4/26 2:00am 66 6 G 7 55° 84% - - 50° 58.6° 54.1° - - 1010.0
4/26 1:50am 53 5 G 6 56° 82% - - 50° 58.6° 54.7° - - 1010.0
4/26 1:40am 73 5 G 6 56° 80% - - 50° 58.6° 55° - - 1010.0
4/26 1:30am 72 6 G 7 56° 79% - - 50° 58.6° 55° - - 1010.0
4/26 1:20am 64 5 G 6 57° 78% - - 50° 58.6° 55.3° - - 1010.0
4/26 1:10am 64 5 G 6 56° 78% - - 50° 58.6° 55.3° - - 1010.0
4/26 1:00am 65 6 G 6 56° 79% - - 50° 58.6° 55.3° - - 1010.0
4/26 12:50am 72 5 G 6 56° 80% - - 50° 58.6° 55.3° - - 1010.0
4/26 12:40am 67 5 G 6 56° 81% - - 50° 58.6° 55.3° - - 1010.0
4/26 12:30am 74 2 G 5 57° 78% - - 50° 58.6° 55.7° - - 1010.0
4/26 12:20am 66 4 G 5 58° 77% - - 51° 58.6° 56.3° - - 1010.0
4/26 12:10am 67 5 G 6 57° 79% - - 50° 57.7° 56.3° - - 1010.0
4/26 12:00am 72 6 G 6 57° 77% - - 50° 66.1° 56.9° - - 1010.0
4/25 11:50pm 67 5 G 6 58° 75% - - 50° 66.1° 57.1° - - 1010.0
4/25 11:40pm 50 4 G 5 58° 76% - - 51° 66.1° 57.3° - - 1010.0
4/25 11:30pm 61 5 G 6 58° 76% - - 50° 66.1° 57.3° - - 1010.0
4/25 11:20pm 66 5 G 6 58° 75% - - 50° 66.1° 57.3° - - 1010.0
4/25 11:10pm 57 5 G 6 58° 76% - - 50° 66.1° 57.7° - - 1010.0
4/25 11:00pm 61 5 G 5 58° 75% - - 50° 66.1° 57.8° - - 1010.0
4/25 10:50pm 67 5 G 6 59° 73% - - 51° 66.1° 58.1° - - 1010.0
4/25 10:40pm 66 3 G 4 59° 75% - - 51° 66.1° 58.6° - - 1010.0
4/25 10:30pm 52 3 G 4 59° 75% - - 51° 66.1° 58.6° - - 1010.0
4/25 10:20pm 63 4 G 5 60° 73% - - 51° 66.1° 58.6° - - 1010.0
4/25 10:10pm 75 3 G 4 60° 73% - - 51° 66.1° 58.6° - - 1010.0
4/25 10:00pm 48 4 G 4 60° 73% - - 51° 66.1° 58.6° - - 1010.0
4/25 9:50pm 65 4 G 5 61° 72% - - 52° 66.1° 58.6° - - 1010.0
4/25 9:40pm 75 2 G 4 61° 74% - - 53° 66.1° 58.6° - - 1010.0
4/25 9:30pm 70 3 G 5 62° 73% - - 53° 66.1° 58.6° - - 1010.0
4/25 9:20pm 168 1 G 3 62° 71% - - 53° 66.1° 58.6° - - 1010.0
4/25 9:10pm 218 1 G 4 62° 70% - - 52° 66.1° 58.6° - - 1010.0
4/25 9:00pm 193 1 G 2 62° 68% - - 52° 66.1° 58.6° - - 1010.0
4/25 8:50pm 235 1 G 5 63° 67% - - 52° 66.1° 58.6° - - 1010.0
4/25 8:40pm 240 4 G 5 63° 67% - - 51° 66.1° 58.6° - - 1010.0
4/25 8:30pm 254 3 G 5 63° 67% - - 51° 66.1° 58.6° - - 1010.0
4/25 8:20pm 275 4 G 6 63° 67% - - 51° 66.1° 58.6° - - 1010.0
4/25 8:10pm 272 4 G 7 63° 66% - - 51° 66.1° 58.6° - - 1010.0
4/25 8:00pm 275 4 G 6 63° 66% - - 51° 66.1° 58.6° - - 1010.0
4/25 7:50pm 261 3 G 5 63° 68% - - 52° 66.1° 58.6° - - 1009.0
4/25 7:40pm 245 2 G 4 63° 70% - - 52° 66.1° 58.6° - - 1009.0
4/25 7:30pm 268 2 G 4 63° 70% - - 53° 66.1° 58.6° - - 1009.0
4/25 7:20pm 245 2 G 5 63° 70% - - 53° 66.1° 58.6° - - 1009.0
4/25 7:10pm 227 3 G 5 63° 69% - - 53° 66.1° 58.6° - - 1009.0
4/25 7:00pm 231 3 G 6 63° 69% - - 53° 66.1° 58.6° - - 1009.0
4/25 6:50pm 258 5 G 8 63° 68% - - 52° 66.1° 58.6° - - 1009.0
4/25 6:40pm 257 5 G 8 63° 67% - - 52° 66.1° 58.6° - - 1009.0
4/25 6:30pm 228 5 G 9 63° 68% - - 52° 66.1° 58.6° - - 1009.0
4/25 6:20pm 240 4 G 7 63° 69% - - 53° 66.1° 58.6° - - 1009.0
4/25 6:10pm 253 3 G 5 63° 70% - - 53° 66.1° 58.6° - - 1009.0
4/25 6:00pm 255 4 G 7 63° 69% - - 53° 66.1° 58.6° - - 1009.0
4/25 5:50pm 273 5 G 9 63° 69% - - 53° 66.1° 58.6° - - 1009.0
4/25 5:40pm 254 5 G 8 63° 69% - - 53° 66.1° 58.6° - - 1009.0
4/25 5:30pm 245 5 G 8 64° 68% - - 53° 66.1° 58.6° - - 1009.0
4/25 5:20pm 270 4 G 8 64° 68% - - 53° 66.1° 58.6° - - 1009.0
4/25 5:10pm 274 6 G 9 64° 67% - - 53° 66.1° 58.6° - - 1009.0
4/25 5:00pm 275 6 G 10 64° 69% - - 54° 66.1° 58.6° - - 1009.0
4/25 4:50pm 272 5 G 8 64° 73% - - 55° 66.1° 58.6° - - 1009.0
4/25 4:40pm 264 6 G 10 64° 72% - - 55° 66.1° 58.6° - - 1009.0
4/25 4:30pm 242 7 G 10 63° 73% - - 55° 66.1° 58.6° - - 1009.0
4/25 4:20pm 250 6 G 11 64° 72% - - 55° 66.1° 58.6° - - 1009.0
4/25 4:10pm 257 7 G 11 64° 72% - - 55° 66.1° 58.6° - - 1009.0
4/25 4:00pm 246 7 G 11 64° 71% - - 54° 66.1° 58.6° - - 1009.0
4/25 3:50pm 266 6 G 10 64° 70% - - 54° 66.1° 58.6° - - 1009.0
4/25 3:40pm 260 7 G 11 64° 71% - - 54° 66.1° 58.6° - - 1010.0
4/25 3:30pm 264 7 G 12 64° 70% - - 54° 66.1° 58.6° - - 1010.0
4/25 3:20pm 255 9 G 13 64° 71% - - 55° 66.1° 58.6° - - 1010.0
4/25 3:10pm 256 8 G 13 64° 71% - - 55° 66.1° 58.6° - - 1010.0
4/25 3:00pm 261 8 G 13 64° 72% - - 55° 66.1° 58.6° - - 1010.0
4/25 2:50pm 259 7 G 12 64° 72% - - 55° 66.1° 58.6° - - 1010.0
4/25 2:40pm 246 8 G 12 64° 72% - - 55° 66.1° 58.6° - - 1009.0
4/25 2:30pm 256 7 G 12 64° 71% - - 55° 66.1° 58.6° - - 1010.0
4/25 2:20pm 256 8 G 11 64° 71% - - 54° 66.1° 58.6° - - 1010.0
4/25 2:10pm 284 8 G 12 64° 71% - - 54° 66.1° 58.6° - - 1010.0
4/25 2:00pm 274 7 G 10 64° 71% - - 55° 66.1° 58.6° - - 1010.0
4/25 1:50pm 281 8 G 12 65° 71% - - 55° 66.1° 58.6° - - 1010.0
4/25 1:40pm 283 8 G 13 65° 72% - - 56° 66.1° 58.6° - - 1010.0
4/25 1:30pm 272 8 G 13 64° 74% - - 56° 66.1° 58.6° - - 1010.0
4/25 1:20pm 279 8 G 12 65° 74% - - 56° 66.1° 58.6° - - 1011.0
4/25 1:10pm 263 7 G 12 65° 74% - - 56° 66.1° 58.6° - - 1011.0
4/25 1:00pm 255 8 G 11 64° 76% - - 56° 66.1° 58.6° - - 1011.0
4/25 12:50pm 264 7 G 12 64° 76% - - 56° 66.1° 58.6° - - 1011.0
4/25 12:40pm 240 8 G 12 64° 76% - - 56° 66.1° 58.6° - - 1011.0
4/25 12:30pm 240 7 G 11 65° 75% - - 56° 66.1° 58.6° - - 1011.0
4/25 12:20pm 235 6 G 10 64° 74% - - 56° 66.1° 58.6° - - 1011.0
4/25 12:10pm 203 7 G 11 64° 74% - - 56° 66.1° 58.6° - - 1011.0
4/25 12:00pm 208 8 G 12 64° 72% - - 55° 66.1° 58.6° - - 1011.0
4/25 11:50am 193 8 G 12 64° 71% - - 55° 66.1° 58.6° - - 1011.0
4/25 11:40am 203 7 G 12 64° 72% - - 55° 66.1° 58.6° - - 1011.0
4/25 11:30am 195 8 G 12 64° 72% - - 55° 65.3° 58.6° - - 1011.0
4/25 11:20am 194 8 G 12 64° 72% - - 55° 65.3° 58.6° - - 1011.0
4/25 11:10am 213 9 G 12 64° 72% - - 55° 65.3° 58.6° - - 1011.0
4/25 11:00am 203 10 G 13 64° 72% - - 55° 64.6° 58.6° - - 1011.0
4/25 10:50am 201 10 G 14 63° 73% - - 54° 64.6° 58.6° - - 1011.0
4/25 10:40am 202 9 G 13 64° 73% - - 55° 64.6° 58.6° - - 1011.0
4/25 10:30am 203 9 G 14 64° 74% - - 55° 64.6° 58.6° - - 1011.0
4/25 10:20am 201 9 G 13 64° 75% - - 55° 64.6° 58.6° - - 1011.0
4/25 10:10am 200 10 G 13 63° 75% - - 55° 64.1° 58.6° - - 1011.0
4/25 10:00am 204 10 G 13 63° 74% - - 55° 64.1° 58.6° - - 1011.0
4/25 9:50am 211 8 G 12 63° 75% - - 55° 64.1° 58.6° - - 1011.0
4/25 9:40am 196 8 G 11 63° 76% - - 55° 64.1° 58.6° - - 1010.0
4/25 9:30am 204 8 G 12 63° 76% - - 55° 63.8° 58.6° - - 1010.0
4/25 9:20am 186 9 G 12 63° 78% - - 56° 63.4° 58.6° - - 1010.0
4/25 9:10am 191 8 G 11 63° 78% - - 56° 63.4° 58.6° - - 1010.0
4/25 9:00am 200 7 G 10 63° 79% - - 56° 63.3° 58.6° - - 1010.0
4/25 8:50am 180 7 G 11 63° 77% - - 55° 63.3° 58.6° - - 1010.0
4/25 8:40am 169 8 G 11 63° 78% - - 56° 63.2° 58.6° - - 1010.0
4/25 8:30am 172 9 G 11 62° 78% - - 56° 63.1° 58.6° - - 1010.0
4/25 8:20am 171 8 G 12 62° 78% - - 55° 63.1° 58.6° - - 1010.0
4/25 8:10am 176 8 G 10 62° 77% - - 55° 63° 58.6° - - 1010.0
4/25 8:00am 173 5 G 10 62° 76% - - 54° 63° 58.6° - - 1010.0
4/25 7:50am 152 5 G 8 61° 77% - - 54° 62.1° 58.6° - - 1009.0
4/25 7:40am 148 6 G 8 61° 77% - - 54° 61.9° 58.6° - - 1009.0
4/25 7:30am 144 7 G 10 61° 78% - - 54° 61.9° 58.6° - - 1009.0
4/25 7:20am 149 6 G 9 60° 79% - - 54° 61.9° 58.6° - - 1009.0
4/25 7:10am 139 6 G 9 60° 79% - - 53° 61.9° 58.6° - - 1009.0
4/25 7:00am 138 7 G 9 60° 79% - - 53° 61.9° 58.6° - - 1009.0
4/25 6:50am 135 7 G 11 60° 79% - - 53° 61.9° 58.6° - - 1009.0
4/25 6:40am 141 6 G 10 60° 80% - - 53° 61.9° 58.6° - - 1008.0
4/25 6:30am 139 7 G 10 60° 80% - - 53° 61.9° 58.6° - - 1008.0
4/25 6:20am 136 6 G 9 60° 80% - - 54° 61.9° 58.6° - - 1008.0
4/25 6:10am 137 6 G 10 60° 80% - - 54° 61.9° 58.6° - - 1008.0
4/25 6:00am 139 5 G 8 60° 80% - - 54° 61.9° 58.6° - - 1008.0
4/25 5:50am 139 5 G 8 60° 80% - - 54° 61.9° 58.6° - - 1008.0
4/25 5:40am 131 3 G 4 60° 82% - - 54° 61.9° 58.6° - - 1008.0
4/25 5:30am 87 1 G 3 59° 82% - - 54° 61.9° 58.6° - - 1008.0
4/25 5:20am 93 3 G 4 59° 82% - - 53° 61.9° 58.6° - - 1008.0
4/25 5:10am 104 4 G 6 59° 82% - - 54° 61.9° 58.6° - - 1008.0
4/25 5:00am 114 3 G 5 59° 81% - - 54° 61.9° 59° - - 1008.0
4/25 4:50am 134 5 G 8 59° 81% - - 53° 61.9° 59° - - 1008.0
4/25 4:40am 137 5 G 8 59° 80% - - 53° 61.9° 59° - - 1008.0
4/25 4:30am 139 6 G 9 59° 79% - - 53° 61.9° 59° - - 1008.0
4/25 4:20am 137 7 G 10 60° 79% - - 53° 61.9° 59° - - 1008.0
4/25 4:10am 145 6 G 8 59° 79% - - 53° 61.9° 59° - - 1008.0
4/25 4:00am 140 6 G 8 59° 79% - - 53° 61.9° 59° - - 1008.0
4/25 3:50am 138 5 G 9 59° 78% - - 53° 61.9° 59° - - 1008.0
4/25 3:40am 139 5 G 8 59° 79% - - 53° 61.9° 59° - - 1008.0
4/25 3:30am 132 4 G 7 59° 79% - - 53° 61.9° 59° - - 1008.0
4/25 3:20am 119 4 G 7 59° 79% - - 53° 61.9° 59° - - 1008.0
4/25 3:10am 126 4 G 6 60° 79% - - 53° 61.9° 59° - - 1008.0
4/25 3:00am 139 4 G 6 60° 79% - - 53° 61.9° 59.4° - - 1008.0
4/25 2:50am 132 4 G 7 60° 79% - - 53° 61.9° 59.4° - - 1008.0
4/25 2:40am 129 4 G 6 60° 79% - - 53° 61.9° 59.4° - - 1009.0
4/25 2:30am 131 5 G 7 60° 78% - - 53° 61.9° 59.7° - - 1009.0
4/25 2:20am 146 5 G 9 61° 77% - - 54° 61.9° 60.2° - - 1009.0
4/25 2:10am 169 6 G 8 61° 77% - - 54° 61.9° 60.5° - - 1009.0
4/25 2:00am 169 7 G 10 61° 77% - - 54° 61.9° 60.5° - - 1009.0
4/25 1:50am 172 7 G 12 61° 77% - - 54° 61.9° 60.6° - - 1009.0
4/25 1:40am 173 7 G 10 61° 76% - - 54° 61.9° 60.6° - - 1009.0
4/25 1:30am 178 7 G 11 61° 77% - - 54° 61.9° 60.6° - - 1009.0
4/25 1:20am 183 8 G 10 61° 78% - - 54° 61.9° 60.6° - - 1008.0
4/25 1:10am 184 7 G 10 61° 78% - - 54° 61.9° 60.7° - - 1009.0
4/25 1:00am 184 6 G 8 61° 77% - - 54° 61.9° 60.7° - - 1009.0
4/25 12:50am 179 6 G 8 61° 77% - - 54° 61.9° 60.7° - - 1009.0
4/25 12:40am 161 5 G 7 61° 77% - - 54° 61.9° 60.7° - - 1009.0
4/25 12:30am 129 4 G 7 61° 78% - - 54° 61.8° 60.7° - - 1009.0
4/25 12:20am 131 4 G 8 61° 78% - - 54° 61.8° 60.7° - - 1009.0
4/25 12:10am 142 4 G 7 61° 78% - - 54° 61.8° 60.7° - - 1009.0
4/25 12:00am 158 7 G 10 61° 78% - - 54° 65.9° 60.1° - - 1008.0
4/24 11:50pm 161 8 G 11 61° 77% - - 54° 65.9° 60.1° - - 1008.0
4/24 11:40pm 169 8 G 12 61° 76% - - 54° 65.9° 60.1° - - 1009.0
4/24 11:30pm 165 8 G 12 61° 76% - - 54° 65.9° 60.1° - - 1009.0
4/24 11:20pm 177 5 G 7 61° 77% - - 54° 65.9° 60.1° - - 1010.0
4/24 11:10pm 180 5 G 7 61° 76% - - 54° 65.9° 60.1° - - 1010.0
4/24 11:00pm 185 4 G 7 61° 77% - - 54° 65.9° 60.1° - - 1010.0
4/24 10:50pm 183 5 G 8 61° 77% - - 54° 65.9° 60.1° - - 1010.0
4/24 10:40pm 176 6 G 9 61° 76% - - 54° 65.9° 60.1° - - 1010.0
4/24 10:30pm 171 6 G 9 61° 77% - - 54° 65.9° 60.1° - - 1009.0
4/24 10:20pm 178 6 G 9 61° 78% - - 54° 65.9° 60.1° - - 1009.0
4/24 10:10pm 189 6 G 8 61° 78% - - 54° 65.9° 60.1° - - 1009.0
4/24 10:00pm 187 6 G 9 61° 76% - - 54° 65.9° 60.1° - - 1009.0
4/24 9:50pm 188 5 G 9 61° 75% - - 54° 65.9° 60.1° - - 1009.0
4/24 9:40pm 184 5 G 7 61° 76% - - 54° 65.9° 60.1° - - 1009.0
4/24 9:30pm 205 4 G 7 61° 77% - - 54° 65.9° 60.1° - - 1010.0
4/24 9:20pm 191 4 G 6 61° 76% - - 54° 65.9° 60.1° - - 1009.0
4/24 9:10pm 192 5 G 6 61° 76% - - 53° 65.9° 60.1° - - 1010.0
4/24 9:00pm 186 4 G 6 61° 76% - - 54° 65.9° 60.1° - - 1009.0
4/24 8:50pm 199 5 G 7 61° 76% - - 54° 65.9° 60.1° - - 1009.0
4/24 8:40pm 200 5 G 8 61° 76% - - 54° 65.9° 60.1° - - 1010.0
4/24 8:30pm 196 5 G 7 61° 77% - - 54° 65.9° 60.1° - - 1010.0
4/24 8:20pm 200 6 G 8 61° 77% - - 54° 65.9° 60.1° - - 1010.0
4/24 8:10pm 213 6 G 8 61° 78% - - 54° 65.9° 60.1° - - 1009.0
4/24 8:00pm 209 6 G 8 61° 78% - - 55° 65.9° 60.1° - - 1009.0
4/24 7:50pm 205 5 G 8 62° 78% - - 55° 65.9° 60.1° - - 1009.0
4/24 7:40pm 207 6 G 9 62° 78% - - 55° 65.9° 60.1° - - 1009.0
4/24 7:30pm 218 6 G 9 62° 77% - - 55° 65.9° 60.1° - - 1009.0
4/24 7:20pm 217 6 G 10 62° 78% - - 55° 65.9° 60.1° - - 1009.0
4/24 7:10pm 228 7 G 11 62° 78% - - 55° 65.9° 60.1° - - 1009.0
4/24 7:00pm 223 6 G 10 63° 77% - - 55° 65.9° 60.1° - - 1009.0
4/24 6:50pm 219 6 G 9 63° 76% - - 55° 65.9° 60.1° - - 1009.0
4/24 6:40pm 226 6 G 9 63° 77% - - 56° 65.9° 60.1° - - 1009.0
4/24 6:30pm 233 6 G 9 63° 78% - - 56° 65.9° 60.1° - - 1009.0
4/24 6:20pm 230 6 G 9 63° 78% - - 56° 65.9° 60.1° - - 1009.0
4/24 6:10pm 239 6 G 9 63° 78% - - 56° 65.9° 60.1° - - 1009.0
4/24 6:00pm 244 7 G 10 63° 78% - - 56° 65.9° 60.1° - - 1009.0